Albia, New York
Current Conditions -  °F | °C
As of 2:51 PM on Friday 19 Dec 2014 (Local Time) from KALB Reporting Station
Overcast Overcast  
Wind Chill: -7°   Ceiling: 3500
Heat Index: -1°   Visibility: 10mi
Dew Point: -7°   Wind: 13mph
Humidity: 66%   Direction: 280°W
Pressure: 30.07"   Gusts: NA
Location:  42.7478°N, 73.6049°W
Report Text: KALB 191951Z 28011KT 10SM FEW028 OVC035 M01/M07 A3007 RMK AO2 SLP187 T10111067
Loading
Personal Weather Stations






























Interactive Weather Map New forecast layout! Learn more

10-Day Weather Forecast

Advertisements
Track Severe Weather on mobile